• Join FlightAware (Why Join?)
  • Login
  • US Flag 
01:09AM EST


 

Airport Tracker/Info


-or-


 

Live Flight TrackerFlight Track Log ✈ N629C ✈ 08-Jul-2013 ✈ KEDC - KSEP

Flight Track Log - Related Links

Times and Time Zones

All times are in EDT time to prevent confusion due to time zone crossing. See the N629C flight status page for this flight to view local times or setup timezone preferences in your user account.

Time Position Orientation Groundspeed Altitude Reporting Facility
EDT Latitude Longitude Course Direction KTS MPH feet Rate Location/Type
01:59PM 30.4439 -97.5178 329° Northwest 123 142 4,600  Level Houston Center
02:00PM 30.4767 -97.5322 339° North 123 142 5,600 600 Climbing Houston Center
02:01PM 30.5106 -97.5472 339° North 128 147 5,900 120 Climbing Houston Center
02:02PM 30.5533 -97.5722 333° Northwest 162 186 5,900  Level Houston Center
02:03PM 30.6014 -97.7125 329° Northwest  Level FlightAware Approximate
02:03PM 30.5903 -97.6083 320° Northwest 169 194 6,000  Level Houston Center
02:04PM 30.6386 -97.7382 329° Northwest  Level FlightAware Approximate
02:04PM 30.6286 -97.6425 323° Northwest 171 197 5,900  Level Houston Center
02:05PM 30.6656 -97.6758 322° Northwest 168 193 5,900  Level Houston Center
02:06PM 30.7033 -97.7094 323° Northwest 167 192 6,000  Climbing Houston Center
02:07PM 30.7458 -97.7483 322° Northwest 165 190 5,900 -60 Descending Houston Center
02:08PM 30.7828 -97.7797 324° Northwest 163 188 5,900  Level Houston Center
02:09PM 30.8186 -97.8136 321° Northwest 164 189 5,900  Level Houston Center
02:10PM 30.8558 -97.8458 323° Northwest 164 189 6,000  Climbing Houston Center
02:11PM 30.8806 -97.8708 319° Northwest 163 188 5,900  Descending Fort Worth Center
02:12PM 30.9158 -97.9025 322° Northwest 157 181 6,000  Climbing Fort Worth Center
02:13PM 30.9492 -97.9342 321° Northwest 155 178 5,900 -60 Descending Fort Worth Center
02:14PM 30.9844 -97.9633 325° Northwest 157 181 5,900  Level Fort Worth Center
02:15PM 31.0219 -97.9928 326° Northwest 163 188 6,000  Climbing Fort Worth Center
02:16PM 31.0700 -97.9978 355° North 167 192 6,000 -120 Level Fort Worth Center
02:16PM 31.0936 -97.9972 North 169 194 5,900 -180 Descending Houston Center
02:17PM 31.1394 -98.0056 351° North 166 191 5,800 60 Descending Houston Center
02:18PM 31.1617 -98.0106 349° North 164 189 6,000 120 Climbing Fort Worth Center
02:19PM 31.2056 -98.0181 352° North 165 190 6,000  Level Fort Worth Center